This is the latest recevied weather packets stored in our database for station/object ON7EQ-13. If no packets are shown the sender has not sent any weather packets the latest 1 day(s).
| Time | Temp. | Humidity | Pressure | Rain* | Wind** | Luminosity | Snow |
|---|---|---|---|---|---|---|---|
| 1778097850 | 11.67° C | 74% | 1010.9 hPa | - | - | - | - |
| 1778096650 | 11.67° C | 77% | 1010.9 hPa | - | - | - | - |
| 1778096050 | 11.67° C | 77% | 1010.8 hPa | - | - | - | - |
| 1778094250 | 12.22° C | 73% | 1010.5 hPa | - | - | - | - |
| 1778092450 | 12.78° C | 71% | 1010.3 hPa | - | - | - | - |
| 1778091250 | 14.44° C | 64% | 1010 hPa | - | - | - | - |
| 1778089450 | 18.89° C | 53% | 1009.6 hPa | - | - | - | - |
| 1778085250 | 15° C | 65% | 1008.8 hPa | - | - | - | - |
| 1778083450 | 16.67° C | 62% | 1008.6 hPa | - | - | - | - |
| 1778070850 | 17.78° C | 66% | 1008 hPa | - | - | - | - |
| 1778070250 | 17.78° C | 69% | 1008.1 hPa | - | - | - | - |
| 1778063050 | 16.11° C | 74% | 1008 hPa | - | - | - | - |
| 1778061250 | 17.22° C | 79% | 1007.9 hPa | - | - | - | - |
| 1778060050 | 15.56° C | 85% | 1007.9 hPa | - | - | - | - |
| 1778055250 | 12.22° C | 99% | 1007.6 hPa | - | - | - | - |
| 1778052250 | 10.56° C | 99% | 1007.5 hPa | - | - | - | - |
| 1778049250 | 10° C | 99% | 1007.4 hPa | - | - | - | - |
| 1778044451 | 9.44° C | 99% | 1007.1 hPa | - | - | - | - |
| 1778042049 | 9.44° C | 99% | 1007.1 hPa | - | - | - | - |
| 1778041450 | 9.44° C | 99% | 1007 hPa | - | - | - | - |
| 1778040849 | 9.44° C | 99% | 1007 hPa | - | - | - | - |
| 1778038449 | 9.44° C | 98% | 1007 hPa | - | - | - | - |
| 1778037850 | 9.44° C | 98% | 1007.1 hPa | - | - | - | - |
| 1778035450 | 9.44° C | 97% | 1007.3 hPa | - | - | - | - |
| 1778034264 | 9.44° C | 96% | 1007.3 hPa | - | - | - | - |
* Rain since midnight (hover to see other rain measurements)
** Current wind speed in m/s (hover to see current wind gust speed)